Terminal Aerodrome Forecast
Issued by NWS

Home | Current Version | Previous Version | Text Only | Print | Product List | Glossary Off
Versions: 1 2 3 4 5 6 7 8 9 10 11 12 13 14 15 16

000
FTUS43 KMPX 270520
TAFRWF
TAF
KRWF 270520Z 2706/2806 32011KT P6SM SCT008 OVC012
      TEMPO 2706/2708 OVC008
     FM271600 31012G18KT P6SM BKN020
     FM271900 32012G18KT P6SM SCT035
     FM280100 31005KT P6SM FEW035=

USA.gov is the U.S. government's official web portal to all federal, state and local government web resources and services.